Time,TemperatureF,DewpointF,PressureIn,WindDirection,WindDirectionDegrees,WindSpeedMPH,WindSpeedGustMPH,Humidity,HourlyPrecipIn,Conditions,Clouds,dailyrainin,SoftwareType,DateUTC
2013-03-02 00:02:00,27.0,21.0,-100.00,NNE,21,7.0,14.0,75,0.00,,,-99.99,,2013-03-02 05:02:00,
2013-03-02 00:12:00,26.0,19.0,-100.00,NE,35,6.0,14.0,76,0.00,,,-99.99,,2013-03-02 05:12:00,
2013-03-02 00:22:00,26.0,21.0,-100.00,North,7,5.0,14.0,77,0.00,,,-99.99,,2013-03-02 05:22:00,
2013-03-02 00:32:00,26.0,19.0,-100.00,North,5,6.0,14.0,76,0.00,,,-99.99,,2013-03-02 05:32:00,
2013-03-02 00:42:00,25.0,19.0,-100.00,North,1,6.0,14.0,76,0.00,,,-99.99,,2013-03-02 05:42:00,
2013-03-02 00:52:00,26.0,21.0,-100.00,NNE,18,6.0,14.0,75,0.00,,,-99.99,,2013-03-02 05:52:00,
2013-03-02 01:02:00,24.0,19.0,-100.00,North,360,5.0,14.0,82,1.14,,,-99.99,,2013-03-02 06:02:00,
2013-03-02 01:11:00,26.0,21.0,-100.00,North,9,6.0,14.0,82,0.00,,,-99.99,,2013-03-02 06:11:00,
2013-03-02 01:21:00,27.0,23.0,-100.00,NNW,344,4.0,14.0,84,0.00,,,-99.99,,2013-03-02 06:21:00,
2013-03-02 01:32:00,26.0,21.0,-100.00,NNW,334,4.0,14.0,81,0.00,,,-99.99,,2013-03-02 06:32:00,
2013-03-02 01:42:00,26.0,23.0,-100.00,NNW,344,5.0,14.0,81,0.00,,,-99.99,,2013-03-02 06:42:00,
2013-03-02 01:52:00,27.0,21.0,-100.00,NNE,15,3.0,14.0,78,0.00,,,-99.99,,2013-03-02 06:52:00,
2013-03-02 02:01:00,26.0,21.0,-100.00,North,11,4.0,14.0,80,0.00,,,-99.99,,2013-03-02 07:01:00,
2013-03-02 02:11:00,27.0,23.0,-100.00,ENE,72,4.0,14.0,80,0.00,,,-99.99,,2013-03-02 07:11:00,
2013-03-02 02:21:00,26.0,23.0,-100.00,North,0,4.0,14.0,81,0.00,,,-99.99,,2013-03-02 07:21:00,
2013-03-02 02:32:00,27.0,21.0,-100.00,NNW,345,4.0,14.0,78,0.00,,,-99.99,,2013-03-02 07:32:00,
2013-03-02 02:42:00,26.0,21.0,-100.00,NNE,15,4.0,14.0,76,0.00,,,-99.99,,2013-03-02 07:42:00,
2013-03-02 02:51:00,27.0,21.0,-100.00,NNW,348,3.0,14.0,78,0.00,,,-99.99,,2013-03-02 07:51:00,
2013-03-02 03:01:00,27.0,23.0,-100.00,North,1,3.0,14.0,81,0.00,,,-99.99,,2013-03-02 08:01:00,
2013-03-02 03:11:00,26.0,23.0,-100.00,North,7,4.0,14.0,81,0.00,,,-99.99,,2013-03-02 08:11:00,
2013-03-02 03:22:00,26.0,19.0,-100.00,NNE,16,5.0,14.0,75,0.00,,,-99.99,,2013-03-02 08:22:00,
2013-03-02 03:32:00,26.0,21.0,-100.00,North,351,4.0,14.0,76,0.00,,,-99.99,,2013-03-02 08:32:00,
2013-03-02 03:42:00,26.0,21.0,-100.00,NNW,348,3.0,14.0,80,0.00,,,-99.99,,2013-03-02 08:42:00,
2013-03-02 03:52:00,27.0,21.0,-100.00,North,358,3.0,14.0,78,0.00,,,-99.99,,2013-03-02 08:52:00,
2013-03-02 04:02:00,27.0,21.0,-100.00,North,2,4.0,14.0,77,1.14,,,-99.99,,2013-03-02 09:02:00,
2013-03-02 04:11:00,26.0,21.0,-100.00,NNE,19,5.0,14.0,76,0.00,,,-99.99,,2013-03-02 09:11:00,
2013-03-02 04:21:00,26.0,21.0,-100.00,NNE,28,6.0,14.0,80,0.00,,,-99.99,,2013-03-02 09:21:00,
2013-03-02 04:32:00,25.0,21.0,-100.00,NE,35,4.0,14.0,81,0.00,,,-99.99,,2013-03-02 09:32:00,
2013-03-02 04:42:00,26.0,21.0,-100.00,North,0,4.0,14.0,82,0.00,,,-99.99,,2013-03-02 09:42:00,
2013-03-02 04:51:00,27.0,23.0,-100.00,NNE,22,4.0,14.0,82,0.00,,,-99.99,,2013-03-02 09:51:00,
2013-03-02 05:01:00,26.0,21.0,-100.00,North,354,3.0,14.0,82,0.00,,,-99.99,,2013-03-02 10:01:00,
2013-03-02 05:16:00,26.0,23.0,-100.00,NNE,29,3.0,14.0,84,0.00,,,-99.99,,2013-03-02 10:16:00,
2013-03-02 05:22:00,27.0,23.0,-100.00,NNE,14,4.0,14.0,81,0.00,,,-99.99,,2013-03-02 10:22:00,
2013-03-02 05:32:00,26.0,21.0,-100.00,North,2,5.0,14.0,81,0.00,,,-99.99,,2013-03-02 10:32:00,
2013-03-02 05:43:00,26.0,21.0,-100.00,North,355,5.0,14.0,80,0.00,,,-99.99,,2013-03-02 10:43:00,
2013-03-02 05:52:00,26.0,21.0,-100.00,NNE,15,5.0,14.0,80,0.00,,,-99.99,,2013-03-02 10:52:00,
2013-03-02 06:01:00,25.0,21.0,-100.00,North,357,4.0,14.0,81,0.00,,,-99.99,,2013-03-02 11:01:00,
2013-03-02 06:11:00,26.0,23.0,-100.00,North,7,4.0,14.0,82,0.00,,,-99.99,,2013-03-02 11:11:00,
2013-03-02 06:22:00,26.0,21.0,-100.00,North,5,5.0,14.0,80,0.00,,,-99.99,,2013-03-02 11:22:00,
2013-03-02 06:32:00,27.0,23.0,-100.00,NE,40,4.0,14.0,81,0.00,,,-99.99,,2013-03-02 11:32:00,
2013-03-02 06:42:00,26.0,21.0,-100.00,NNE,32,4.0,14.0,81,0.00,,,-99.99,,2013-03-02 11:42:00,
2013-03-02 06:52:00,26.0,21.0,-100.00,NE,39,4.0,14.0,80,0.00,,,-99.99,,2013-03-02 11:52:00,
2013-03-02 07:02:00,26.0,21.0,-100.00,NNE,26,4.0,14.0,80,0.00,,,-99.99,,2013-03-02 12:02:00,
2013-03-02 07:11:00,25.0,21.0,-100.00,North,358,3.0,14.0,78,0.00,,,-99.99,,2013-03-02 12:11:00,
2013-03-02 07:22:00,26.0,19.0,-100.00,North,4,6.0,14.0,76,0.00,,,-99.99,,2013-03-02 12:22:00,
2013-03-02 07:33:00,26.0,21.0,-100.00,North,360,4.0,14.0,78,0.00,,,-99.99,,2013-03-02 12:33:00,
2013-03-02 07:43:00,26.0,21.0,-100.00,North,8,5.0,14.0,81,0.00,,,-99.99,,2013-03-02 12:43:00,
2013-03-02 07:53:00,26.0,23.0,-100.00,North,0,6.0,14.0,85,1.14,,,-99.99,,2013-03-02 12:53:00,
2013-03-02 08:01:00,26.0,23.0,-100.00,North,2,4.0,14.0,84,0.00,,,-99.99,,2013-03-02 13:01:00,
2013-03-02 08:11:00,25.0,21.0,-100.00,North,8,4.0,14.0,84,1.14,,,-99.99,,2013-03-02 13:11:00,
2013-03-02 08:22:00,26.0,23.0,-100.00,North,355,4.0,14.0,84,0.00,,,-99.99,,2013-03-02 13:22:00,
2013-03-02 08:32:00,26.0,23.0,-100.00,North,1,3.0,14.0,84,0.00,,,-99.99,,2013-03-02 13:32:00,
2013-03-02 08:42:00,26.0,23.0,-100.00,NNW,348,3.0,14.0,84,0.00,,,-99.99,,2013-03-02 13:42:00,
2013-03-02 08:52:00,26.0,23.0,-100.00,North,354,4.0,14.0,82,0.00,,,-99.99,,2013-03-02 13:52:00,
2013-03-02 09:01:00,26.0,21.0,-100.00,NW,320,6.0,14.0,78,0.00,,,-99.99,,2013-03-02 14:01:00,
2013-03-02 09:11:00,27.0,21.0,-100.00,NNW,340,6.0,14.0,77,0.00,,,-99.99,,2013-03-02 14:11:00,
2013-03-02 09:22:00,26.0,21.0,-100.00,NNW,348,6.0,14.0,78,4.53,,,-99.99,,2013-03-02 14:22:00,
2013-03-02 09:32:00,26.0,21.0,-100.00,North,0,6.0,14.0,78,0.00,,,-99.99,,2013-03-02 14:32:00,
2013-03-02 09:42:00,26.0,21.0,-100.00,North,2,6.0,14.0,81,1.14,,,-99.99,,2013-03-02 14:42:00,
2013-03-02 09:52:00,26.0,21.0,-100.00,North,355,6.0,14.0,81,2.83,,,-99.99,,2013-03-02 14:52:00,
2013-03-02 10:02:00,25.0,21.0,-100.00,North,355,5.0,14.0,81,0.00,,,-99.99,,2013-03-02 15:02:00,
2013-03-02 10:11:00,24.0,18.0,-100.00,NNW,340,5.0,14.0,76,0.00,,,-99.99,,2013-03-02 15:11:00,
2013-03-02 10:22:00,28.0,23.0,-100.00,North,351,4.0,14.0,80,0.00,,,-99.99,,2013-03-02 15:22:00,
2013-03-02 10:32:00,26.0,21.0,-100.00,NW,309,5.0,14.0,78,1.14,,,-99.99,,2013-03-02 15:32:00,
2013-03-02 10:42:00,27.0,23.0,-100.00,NNW,330,6.0,14.0,80,0.00,,,-99.99,,2013-03-02 15:42:00,
2013-03-02 10:52:00,26.0,21.0,-100.00,NNW,330,6.0,14.0,80,0.00,,,-99.99,,2013-03-02 15:52:00,
2013-03-02 11:02:00,26.0,21.0,-100.00,North,352,7.0,14.0,80,1.14,,,-99.99,,2013-03-02 16:02:00,
2013-03-02 11:11:00,26.0,19.0,-100.00,North,354,7.0,7.0,77,1.14,,,-99.99,,2013-03-02 16:11:00,
2013-03-02 11:22:00,26.0,21.0,-100.00,NNW,331,6.0,7.0,77,1.14,,,-99.99,,2013-03-02 16:22:00,
2013-03-02 11:32:00,26.0,19.0,-100.00,NNW,340,7.0,8.0,75,0.00,,,-99.99,,2013-03-02 16:32:00,
2013-03-02 11:42:00,27.0,21.0,-100.00,NNW,337,7.0,10.0,73,0.00,,,-99.99,,2013-03-02 16:42:00,
2013-03-02 11:52:00,27.0,21.0,-100.00,NNE,12,7.0,10.0,73,0.00,,,-99.99,,2013-03-02 16:52:00,
2013-03-02 12:01:00,27.0,21.0,-100.00,North,355,6.0,10.0,73,0.00,,,-99.99,,2013-03-02 17:01:00,
2013-03-02 12:12:00,28.0,21.0,-100.00,NNW,333,6.0,10.0,73,0.00,,,-99.99,,2013-03-02 17:12:00,
2013-03-02 12:22:00,27.0,19.0,-100.00,NNW,328,6.0,10.0,69,0.00,,,-99.99,,2013-03-02 17:22:00,
2013-03-02 12:32:00,26.0,18.0,-100.00,NNW,334,7.0,10.0,68,0.00,,,-99.99,,2013-03-02 17:32:00,
2013-03-02 12:42:00,27.0,19.0,-100.00,NNW,341,5.0,10.0,71,0.00,,,-99.99,,2013-03-02 17:42:00,
2013-03-02 12:52:00,25.0,18.0,-100.00,North,350,6.0,10.0,69,0.00,,,-99.99,,2013-03-02 17:52:00,
2013-03-02 13:02:00,27.0,19.0,-100.00,NW,324,5.0,10.0,71,0.00,,,-99.99,,2013-03-02 18:02:00,
2013-03-02 13:11:00,27.0,19.0,-100.00,NW,317,6.0,10.0,71,0.00,,,-99.99,,2013-03-02 18:11:00,
2013-03-02 13:22:00,27.0,21.0,-100.00,NW,314,5.0,10.0,73,0.00,,,-99.99,,2013-03-02 18:22:00,
2013-03-02 13:32:00,27.0,19.0,-100.00,NNW,337,4.0,10.0,72,0.00,,,-99.99,,2013-03-02 18:32:00,
2013-03-02 13:42:00,27.0,19.0,-100.00,North,350,6.0,10.0,72,0.00,,,-99.99,,2013-03-02 18:42:00,
2013-03-02 13:52:00,27.0,19.0,-100.00,WNW,289,5.0,10.0,71,0.00,,,-99.99,,2013-03-02 18:52:00,
2013-03-02 14:02:00,27.0,19.0,-100.00,WNW,300,6.0,10.0,69,0.00,,,-99.99,,2013-03-02 19:02:00,
2013-03-02 14:12:00,28.0,21.0,-100.00,NW,319,7.0,10.0,71,0.00,,,-99.99,,2013-03-02 19:12:00,
2013-03-02 14:22:00,28.0,21.0,-100.00,NNW,340,6.0,10.0,72,0.00,,,-99.99,,2013-03-02 19:22:00,
2013-03-02 14:32:00,28.0,21.0,-100.00,NNW,330,6.0,10.0,71,0.00,,,-99.99,,2013-03-02 19:32:00,
2013-03-02 14:42:00,28.0,21.0,-100.00,North,352,7.0,10.0,72,0.00,,,-99.99,,2013-03-02 19:42:00,
2013-03-02 14:52:00,28.0,21.0,-100.00,NNW,347,6.0,10.0,71,0.00,,,-99.99,,2013-03-02 19:52:00,
2013-03-02 15:01:00,28.0,19.0,-100.00,NW,323,6.0,10.0,69,0.00,,,-99.99,,2013-03-02 20:01:00,
2013-03-02 15:11:00,28.0,19.0,-100.00,NNW,340,7.0,10.0,71,0.00,,,-99.99,,2013-03-02 20:11:00,
2013-03-02 15:22:00,29.0,21.0,-100.00,NNW,347,6.0,10.0,72,0.00,,,-99.99,,2013-03-02 20:22:00,
2013-03-02 15:32:00,28.0,21.0,-100.00,NNW,343,6.0,10.0,71,0.00,,,-99.99,,2013-03-02 20:32:00,
2013-03-02 15:42:00,27.0,19.0,-100.00,NW,326,4.0,10.0,71,0.00,,,-99.99,,2013-03-02 20:42:00,
2013-03-02 15:52:00,27.0,19.0,-100.00,North,352,6.0,10.0,68,0.00,,,-99.99,,2013-03-02 20:52:00,
2013-03-02 16:02:00,27.0,19.0,-100.00,North,360,5.0,10.0,71,0.00,,,-99.99,,2013-03-02 21:02:00,
2013-03-02 16:12:00,28.0,19.0,-100.00,NNW,337,6.0,10.0,68,0.00,,,-99.99,,2013-03-02 21:12:00,
2013-03-02 16:22:00,28.0,19.0,-100.00,NNW,348,6.0,10.0,67,0.00,,,-99.99,,2013-03-02 21:22:00,
2013-03-02 16:32:00,28.0,19.0,-100.00,NW,314,6.0,10.0,68,0.00,,,-99.99,,2013-03-02 21:32:00,
2013-03-02 16:42:00,28.0,19.0,-100.00,NNE,32,4.0,10.0,69,0.00,,,-99.99,,2013-03-02 21:42:00,
2013-03-02 16:52:00,28.0,19.0,-100.00,NNW,333,4.0,10.0,68,0.00,,,-99.99,,2013-03-02 21:52:00,
2013-03-02 17:02:00,28.0,19.0,-100.00,NW,306,5.0,10.0,69,0.00,,,-99.99,,2013-03-02 22:02:00,
2013-03-02 17:11:00,28.0,19.0,-100.00,NNW,331,4.0,10.0,69,0.00,,,-99.99,,2013-03-02 22:11:00,
2013-03-02 17:22:00,28.0,21.0,-100.00,WNW,295,4.0,10.0,71,0.00,,,-99.99,,2013-03-02 22:22:00,
2013-03-02 17:32:00,27.0,19.0,-100.00,North,0,5.0,10.0,69,0.00,,,-99.99,,2013-03-02 22:32:00,
2013-03-02 17:42:00,27.0,19.0,-100.00,NNW,327,4.0,10.0,69,0.00,,,-99.99,,2013-03-02 22:42:00,
2013-03-02 17:51:00,27.0,19.0,-100.00,North,2,2.0,10.0,69,0.00,,,-99.99,,2013-03-02 22:51:00,
2013-03-02 18:01:00,27.0,19.0,-100.00,North,350,3.0,10.0,71,0.00,,,-99.99,,2013-03-02 23:01:00,
2013-03-02 18:11:00,27.0,19.0,-100.00,NNW,334,4.0,10.0,69,0.00,,,-99.99,,2013-03-02 23:11:00,
2013-03-02 18:21:00,28.0,21.0,-100.00,NNW,338,4.0,10.0,71,0.00,,,-99.99,,2013-03-02 23:21:00,
2013-03-02 18:32:00,27.0,19.0,-100.00,NNW,334,5.0,10.0,69,0.00,,,-99.99,,2013-03-02 23:32:00,
2013-03-02 18:42:00,30.0,23.0,-100.00,NNW,327,3.0,10.0,72,0.00,,,-99.99,,2013-03-02 23:42:00,
2013-03-02 18:52:00,30.0,23.0,-100.00,NNW,343,4.0,10.0,72,0.00,,,-99.99,,2013-03-02 23:52:00,
2013-03-02 19:02:00,25.0,19.0,-100.00,North,360,3.0,10.0,73,0.00,,,-99.99,,2013-03-03 00:02:00,
2013-03-02 19:11:00,30.0,23.0,-100.00,North,354,2.0,10.0,72,0.00,,,-99.99,,2013-03-03 00:11:00,
2013-03-02 19:22:00,27.0,19.0,-100.00,East,91,4.0,10.0,71,0.00,,,-99.99,,2013-03-03 00:22:00,
2013-03-02 19:32:00,27.0,21.0,-100.00,North,9,2.0,10.0,72,0.00,,,-99.99,,2013-03-03 00:32:00,
2013-03-02 19:42:00,25.0,18.0,-100.00,North,11,5.0,10.0,69,0.00,,,-99.99,,2013-03-03 00:42:00,
2013-03-02 19:52:00,28.0,21.0,-100.00,North,357,3.0,10.0,73,0.00,,,-99.99,,2013-03-03 00:52:00,
2013-03-02 20:01:00,27.0,19.0,-100.00,North,0,6.0,10.0,71,0.00,,,-99.99,,2013-03-03 01:01:00,
2013-03-02 20:11:00,27.0,21.0,-100.00,NNW,347,3.0,10.0,72,0.00,,,-99.99,,2013-03-03 01:11:00,
2013-03-02 20:21:00,27.0,19.0,-100.00,North,351,4.0,10.0,71,0.00,,,-99.99,,2013-03-03 01:21:00,
2013-03-02 20:32:00,28.0,21.0,-100.00,North,9,4.0,10.0,72,0.00,,,-99.99,,2013-03-03 01:32:00,
2013-03-02 20:42:00,27.0,19.0,-100.00,NNW,331,4.0,10.0,73,0.00,,,-99.99,,2013-03-03 01:42:00,
2013-03-02 20:52:00,27.0,21.0,-100.00,North,1,4.0,10.0,72,0.00,,,-99.99,,2013-03-03 01:52:00,
2013-03-02 21:01:00,27.0,21.0,-100.00,North,1,4.0,10.0,72,0.00,,,-99.99,,2013-03-03 02:01:00,
2013-03-02 21:11:00,28.0,19.0,-100.00,NNW,347,6.0,10.0,71,0.00,,,-99.99,,2013-03-03 02:11:00,
2013-03-02 21:21:00,28.0,19.0,-100.00,North,352,6.0,10.0,71,0.00,,,-99.99,,2013-03-03 02:21:00,
2013-03-02 21:32:00,28.0,21.0,-100.00,North,358,5.0,10.0,71,0.00,,,-99.99,,2013-03-03 02:32:00,
2013-03-02 21:42:00,27.0,19.0,-100.00,NNW,343,3.0,10.0,71,0.00,,,-99.99,,2013-03-03 02:42:00,
2013-03-02 21:52:00,27.0,19.0,-100.00,North,0,4.0,10.0,72,0.00,,,-99.99,,2013-03-03 02:52:00,
2013-03-02 22:01:00,26.0,18.0,-100.00,NNW,347,4.0,10.0,69,0.00,,,-99.99,,2013-03-03 03:01:00,
2013-03-02 22:11:00,27.0,19.0,-100.00,NNW,344,2.0,10.0,72,0.00,,,-99.99,,2013-03-03 03:11:00,
2013-03-02 22:21:00,27.0,19.0,-100.00,NNW,336,3.0,10.0,72,0.00,,,-99.99,,2013-03-03 03:21:00,
2013-03-02 22:32:00,27.0,19.0,-100.00,NNW,333,3.0,10.0,72,0.00,,,-99.99,,2013-03-03 03:32:00,
2013-03-02 22:42:00,27.0,21.0,-100.00,NNW,345,3.0,10.0,73,0.00,,,-99.99,,2013-03-03 03:42:00,
2013-03-02 22:52:00,27.0,19.0,-100.00,NNW,330,4.0,10.0,72,0.00,,,-99.99,,2013-03-03 03:52:00,
2013-03-02 23:01:00,27.0,19.0,-100.00,NW,321,5.0,10.0,73,0.00,,,-99.99,,2013-03-03 04:01:00,
2013-03-02 23:11:00,27.0,21.0,-100.00,NNW,345,4.0,10.0,75,0.00,,,-99.99,,2013-03-03 04:11:00,
2013-03-02 23:21:00,26.0,19.0,-100.00,NW,326,5.0,10.0,72,0.00,,,-99.99,,2013-03-03 04:21:00,
2013-03-02 23:32:00,25.0,19.0,-100.00,NW,313,5.0,10.0,73,0.00,,,-99.99,,2013-03-03 04:32:00,
2013-03-02 23:42:00,26.0,19.0,-100.00,NW,313,4.0,10.0,72,0.00,,,-99.99,,2013-03-03 04:42:00,
2013-03-02 23:51:00,26.0,18.0,-100.00,NNW,330,6.0,10.0,71,0.00,,,-99.99,,2013-03-03 04:51:00,